sensor_id;sensor_type;location;lat;lon;timestamp;temperature;humidity
40696;DHT22;40425;51.102;17.208;2022-07-29T00:02:13;14.50;99.90
40696;DHT22;40425;51.102;17.208;2022-07-29T00:07:13;14.50;99.90
40696;DHT22;40425;51.102;17.208;2022-07-29T00:12:14;14.40;99.90
40696;DHT22;40425;51.102;17.208;2022-07-29T00:17:15;14.40;99.90
40696;DHT22;40425;51.102;17.208;2022-07-29T00:22:16;14.40;99.90
40696;DHT22;40425;51.102;17.208;2022-07-29T00:27:18;14.20;99.90
40696;DHT22;40425;51.102;17.208;2022-07-29T00:32:18;14.20;99.90
40696;DHT22;40425;51.102;17.208;2022-07-29T00:37:19;14.10;99.90
40696;DHT22;40425;51.102;17.208;2022-07-29T00:42:20;14.00;99.90
40696;DHT22;40425;51.102;17.208;2022-07-29T00:47:22;13.90;99.90
40696;DHT22;40425;51.102;17.208;2022-07-29T00:52:23;13.90;99.90
40696;DHT22;40425;51.102;17.208;2022-07-29T00:57:24;13.90;99.90
40696;DHT22;40425;51.102;17.208;2022-07-29T01:02:25;13.80;99.90
40696;DHT22;40425;51.102;17.208;2022-07-29T01:07:27;13.80;99.90
40696;DHT22;40425;51.102;17.208;2022-07-29T01:12:30;13.80;99.90
40696;DHT22;40425;51.102;17.208;2022-07-29T01:17:43;13.70;99.90
40696;DHT22;40425;51.102;17.208;2022-07-29T01:33:25;13.50;99.90
40696;DHT22;40425;51.102;17.208;2022-07-29T01:39:12;13.50;99.90
40696;DHT22;40425;51.102;17.208;2022-07-29T01:44:15;13.50;99.90
40696;DHT22;40425;51.102;17.208;2022-07-29T01:49:21;13.50;99.90
40696;DHT22;40425;51.102;17.208;2022-07-29T01:54:47;13.30;99.90
40696;DHT22;40425;51.102;17.208;2022-07-29T01:59:51;13.30;99.90
40696;DHT22;40425;51.102;17.208;2022-07-29T02:04:53;13.20;99.90
40696;DHT22;40425;51.102;17.208;2022-07-29T02:09:55;13.10;99.90
40696;DHT22;40425;51.102;17.208;2022-07-29T02:15:00;13.20;99.90
40696;DHT22;40425;51.102;17.208;2022-07-29T02:20:03;13.10;99.90
40696;DHT22;40425;51.102;17.208;2022-07-29T02:25:06;13.10;99.90
40696;DHT22;40425;51.102;17.208;2022-07-29T02:30:08;13.10;99.90
40696;DHT22;40425;51.102;17.208;2022-07-29T02:35:13;13.10;99.90
40696;DHT22;40425;51.102;17.208;2022-07-29T02:40:15;13.00;99.90
40696;DHT22;40425;51.102;17.208;2022-07-29T02:45:17;13.00;99.90
40696;DHT22;40425;51.102;17.208;2022-07-29T02:50:21;13.00;99.90
40696;DHT22;40425;51.102;17.208;2022-07-29T02:55:30;13.00;99.90
40696;DHT22;40425;51.102;17.208;2022-07-29T03:00:37;13.10;99.90
40696;DHT22;40425;51.102;17.208;2022-07-29T03:05:39;13.10;99.90
40696;DHT22;40425;51.102;17.208;2022-07-29T03:10:43;13.10;99.90
40696;DHT22;40425;51.102;17.208;2022-07-29T03:15:44;13.20;99.90
40696;DHT22;40425;51.102;17.208;2022-07-29T03:20:45;13.10;99.90
40696;DHT22;40425;51.102;17.208;2022-07-29T03:25:46;13.10;99.90
40696;DHT22;40425;51.102;17.208;2022-07-29T03:30:48;12.90;99.90
40696;DHT22;40425;51.102;17.208;2022-07-29T03:35:49;13.20;99.90
40696;DHT22;40425;51.102;17.208;2022-07-29T03:40:54;13.30;99.90
40696;DHT22;40425;51.102;17.208;2022-07-29T03:45:58;13.50;99.90
40696;DHT22;40425;51.102;17.208;2022-07-29T03:50:59;13.40;99.90
40696;DHT22;40425;51.102;17.208;2022-07-29T03:56:02;13.70;99.90
40696;DHT22;40425;51.102;17.208;2022-07-29T04:01:03;13.90;99.90
40696;DHT22;40425;51.102;17.208;2022-07-29T04:06:06;13.80;99.90
40696;DHT22;40425;51.102;17.208;2022-07-29T04:11:07;14.10;99.90
40696;DHT22;40425;51.102;17.208;2022-07-29T04:16:08;15.90;99.90
40696;DHT22;40425;51.102;17.208;2022-07-29T04:21:09;18.30;99.90
40696;DHT22;40425;51.102;17.208;2022-07-29T04:26:10;19.90;99.90
40696;DHT22;40425;51.102;17.208;2022-07-29T04:31:12;23.20;95.50
40696;DHT22;40425;51.102;17.208;2022-07-29T04:36:14;25.00;89.50
40696;DHT22;40425;51.102;17.208;2022-07-29T04:41:16;26.00;84.00
40696;DHT22;40425;51.102;17.208;2022-07-29T04:46:18;25.40;81.90
40696;DHT22;40425;51.102;17.208;2022-07-29T04:51:20;27.20;77.80
40696;DHT22;40425;51.102;17.208;2022-07-29T04:56:22;29.00;74.10
40696;DHT22;40425;51.102;17.208;2022-07-29T05:01:24;28.80;71.40
40696;DHT22;40425;51.102;17.208;2022-07-29T05:06:26;26.20;75.30
40696;DHT22;40425;51.102;17.208;2022-07-29T05:11:28;23.00;82.40
40696;DHT22;40425;51.102;17.208;2022-07-29T05:16:30;21.20;90.20
40696;DHT22;40425;51.102;17.208;2022-07-29T05:21:32;20.10;93.20
40696;DHT22;40425;51.102;17.208;2022-07-29T05:26:34;19.80;96.20
40696;DHT22;40425;51.102;17.208;2022-07-29T05:31:37;19.80;97.20
40696;DHT22;40425;51.102;17.208;2022-07-29T05:36:38;19.90;98.00
40696;DHT22;40425;51.102;17.208;2022-07-29T05:41:40;19.90;98.70
40696;DHT22;40425;51.102;17.208;2022-07-29T05:46:42;19.90;98.90
40696;DHT22;40425;51.102;17.208;2022-07-29T05:51:43;19.90;99.40
40696;DHT22;40425;51.102;17.208;2022-07-29T05:56:46;20.10;98.70
40696;DHT22;40425;51.102;17.208;2022-07-29T06:01:47;20.30;98.80
40696;DHT22;40425;51.102;17.208;2022-07-29T06:06:50;20.40;98.00
40696;DHT22;40425;51.102;17.208;2022-07-29T06:11:52;20.60;97.80
40696;DHT22;40425;51.102;17.208;2022-07-29T06:16:55;20.70;97.10
40696;DHT22;40425;51.102;17.208;2022-07-29T06:21:58;20.70;97.20
40696;DHT22;40425;51.102;17.208;2022-07-29T06:26:59;20.90;97.00
40696;DHT22;40425;51.102;17.208;2022-07-29T06:32:00;21.20;95.70
40696;DHT22;40425;51.102;17.208;2022-07-29T06:37:06;21.70;95.10
40696;DHT22;40425;51.102;17.208;2022-07-29T06:42:07;21.80;94.60
40696;DHT22;40425;51.102;17.208;2022-07-29T06:47:08;22.00;94.70
40696;DHT22;40425;51.102;17.208;2022-07-29T06:52:08;22.30;94.10
40696;DHT22;40425;51.102;17.208;2022-07-29T06:57:09;22.70;93.50
40696;DHT22;40425;51.102;17.208;2022-07-29T07:02:10;22.80;92.40
40696;DHT22;40425;51.102;17.208;2022-07-29T07:07:11;23.10;92.20
40696;DHT22;40425;51.102;17.208;2022-07-29T07:12:12;23.30;91.70
40696;DHT22;40425;51.102;17.208;2022-07-29T07:17:13;23.40;90.90
40696;DHT22;40425;51.102;17.208;2022-07-29T07:22:14;23.30;91.40
40696;DHT22;40425;51.102;17.208;2022-07-29T07:27:15;23.20;91.20
40696;DHT22;40425;51.102;17.208;2022-07-29T07:32:15;23.30;91.50
40696;DHT22;40425;51.102;17.208;2022-07-29T07:37:16;23.60;91.50
40696;DHT22;40425;51.102;17.208;2022-07-29T07:42:20;23.70;90.40
40696;DHT22;40425;51.102;17.208;2022-07-29T07:47:20;24.10;90.10
40696;DHT22;40425;51.102;17.208;2022-07-29T07:52:22;24.20;89.10
40696;DHT22;40425;51.102;17.208;2022-07-29T07:57:23;24.20;90.20
40696;DHT22;40425;51.102;17.208;2022-07-29T08:02:24;24.40;90.40
40696;DHT22;40425;51.102;17.208;2022-07-29T08:07:25;24.30;90.50
40696;DHT22;40425;51.102;17.208;2022-07-29T08:12:26;24.50;89.80
40696;DHT22;40425;51.102;17.208;2022-07-29T08:17:27;24.60;88.90
40696;DHT22;40425;51.102;17.208;2022-07-29T08:22:29;24.40;90.50
40696;DHT22;40425;51.102;17.208;2022-07-29T08:27:30;24.40;91.10
40696;DHT22;40425;51.102;17.208;2022-07-29T08:32:32;24.40;90.00
40696;DHT22;40425;51.102;17.208;2022-07-29T08:37:33;24.90;90.20
40696;DHT22;40425;51.102;17.208;2022-07-29T08:42:34;25.10;88.50
40696;DHT22;40425;51.102;17.208;2022-07-29T08:47:35;25.30;87.60
40696;DHT22;40425;51.102;17.208;2022-07-29T08:52:40;25.30;88.30
40696;DHT22;40425;51.102;17.208;2022-07-29T08:57:42;25.00;88.30
40696;DHT22;40425;51.102;17.208;2022-07-29T09:02:47;25.10;88.20
40696;DHT22;40425;51.102;17.208;2022-07-29T09:07:48;25.40;88.20
40696;DHT22;40425;51.102;17.208;2022-07-29T09:12:50;25.30;87.10
40696;DHT22;40425;51.102;17.208;2022-07-29T09:17:52;25.70;87.60
40696;DHT22;40425;51.102;17.208;2022-07-29T09:22:53;26.00;86.30
40696;DHT22;40425;51.102;17.208;2022-07-29T09:27:54;26.10;86.10
40696;DHT22;40425;51.102;17.208;2022-07-29T09:32:58;26.20;85.10
40696;DHT22;40425;51.102;17.208;2022-07-29T09:38:11;26.10;86.60
40696;DHT22;40425;51.102;17.208;2022-07-29T09:43:13;26.10;86.70
40696;DHT22;40425;51.102;17.208;2022-07-29T09:48:23;26.40;85.40
40696;DHT22;40425;51.102;17.208;2022-07-29T09:53:37;26.90;83.60
40696;DHT22;40425;51.102;17.208;2022-07-29T09:58:38;27.10;82.50
40696;DHT22;40425;51.102;17.208;2022-07-29T10:03:52;27.00;83.10
40696;DHT22;40425;51.102;17.208;2022-07-29T10:08:53;26.50;82.90
40696;DHT22;40425;51.102;17.208;2022-07-29T10:13:54;26.30;84.40
40696;DHT22;40425;51.102;17.208;2022-07-29T10:18:55;26.10;84.20
40696;DHT22;40425;51.102;17.208;2022-07-29T10:23:58;25.80;84.40
40696;DHT22;40425;51.102;17.208;2022-07-29T10:29:00;25.90;85.60
40696;DHT22;40425;51.102;17.208;2022-07-29T10:34:34;26.50;84.40
40696;DHT22;40425;51.102;17.208;2022-07-29T10:40:00;26.50;85.50
40696;DHT22;40425;51.102;17.208;2022-07-29T10:45:23;26.20;84.50
40696;DHT22;40425;51.102;17.208;2022-07-29T10:50:24;26.50;83.80
40696;DHT22;40425;51.102;17.208;2022-07-29T10:55:39;26.60;83.90
40696;DHT22;40425;51.102;17.208;2022-07-29T11:00:48;26.70;83.60
40696;DHT22;40425;51.102;17.208;2022-07-29T11:05:56;26.70;82.30
40696;DHT22;40425;51.102;17.208;2022-07-29T11:16:20;26.80;82.70
40696;DHT22;40425;51.102;17.208;2022-07-29T11:21:42;26.90;83.00
40696;DHT22;40425;51.102;17.208;2022-07-29T11:26:43;27.30;82.40
40696;DHT22;40425;51.102;17.208;2022-07-29T11:31:49;27.20;81.80
40696;DHT22;40425;51.102;17.208;2022-07-29T11:47:24;28.20;79.00
40696;DHT22;40425;51.102;17.208;2022-07-29T11:52:37;27.80;79.70
40696;DHT22;40425;51.102;17.208;2022-07-29T11:57:51;27.80;79.00
40696;DHT22;40425;51.102;17.208;2022-07-29T12:02:55;27.20;80.50
40696;DHT22;40425;51.102;17.208;2022-07-29T12:08:21;27.50;80.20
40696;DHT22;40425;51.102;17.208;2022-07-29T12:13:22;27.50;80.10
40696;DHT22;40425;51.102;17.208;2022-07-29T12:18:24;27.40;80.00
40696;DHT22;40425;51.102;17.208;2022-07-29T12:23:25;27.40;80.80
40696;DHT22;40425;51.102;17.208;2022-07-29T12:28:26;27.80;81.30
40696;DHT22;40425;51.102;17.208;2022-07-29T12:33:28;28.40;79.50
40696;DHT22;40425;51.102;17.208;2022-07-29T12:38:30;28.50;78.80
40696;DHT22;40425;51.102;17.208;2022-07-29T12:43:31;27.70;79.30
40696;DHT22;40425;51.102;17.208;2022-07-29T12:48:40;27.80;80.30
40696;DHT22;40425;51.102;17.208;2022-07-29T12:54:03;27.90;79.00
40696;DHT22;40425;51.102;17.208;2022-07-29T12:59:22;27.50;80.30
40696;DHT22;40425;51.102;17.208;2022-07-29T13:04:31;27.60;81.00
40696;DHT22;40425;51.102;17.208;2022-07-29T13:09:41;27.40;81.20
40696;DHT22;40425;51.102;17.208;2022-07-29T13:14:45;27.30;81.00
40696;DHT22;40425;51.102;17.208;2022-07-29T13:19:51;27.20;82.80
40696;DHT22;40425;51.102;17.208;2022-07-29T13:24:56;27.70;80.30
40696;DHT22;40425;51.102;17.208;2022-07-29T13:29:59;28.30;79.90
40696;DHT22;40425;51.102;17.208;2022-07-29T13:35:03;28.70;80.50
40696;DHT22;40425;51.102;17.208;2022-07-29T13:40:05;28.70;79.50
40696;DHT22;40425;51.102;17.208;2022-07-29T13:45:08;28.70;79.00
40696;DHT22;40425;51.102;17.208;2022-07-29T13:50:09;29.00;78.20
40696;DHT22;40425;51.102;17.208;2022-07-29T13:55:10;28.90;78.50
40696;DHT22;40425;51.102;17.208;2022-07-29T14:00:12;28.90;77.90
40696;DHT22;40425;51.102;17.208;2022-07-29T14:05:13;28.40;78.50
40696;DHT22;40425;51.102;17.208;2022-07-29T14:10:14;28.30;79.10
40696;DHT22;40425;51.102;17.208;2022-07-29T14:15:15;28.40;78.30
40696;DHT22;40425;51.102;17.208;2022-07-29T14:20:16;28.60;79.90
40696;DHT22;40425;51.102;17.208;2022-07-29T14:25:16;29.10;79.30
40696;DHT22;40425;51.102;17.208;2022-07-29T14:30:17;29.30;78.60
40696;DHT22;40425;51.102;17.208;2022-07-29T14:35:18;29.40;77.50
40696;DHT22;40425;51.102;17.208;2022-07-29T14:40:19;29.00;78.70
40696;DHT22;40425;51.102;17.208;2022-07-29T14:45:20;29.00;79.10
40696;DHT22;40425;51.102;17.208;2022-07-29T14:50:22;28.90;80.30
40696;DHT22;40425;51.102;17.208;2022-07-29T14:55:24;28.70;79.10
40696;DHT22;40425;51.102;17.208;2022-07-29T15:00:25;28.70;78.70
40696;DHT22;40425;51.102;17.208;2022-07-29T15:05:26;28.50;79.90
40696;DHT22;40425;51.102;17.208;2022-07-29T15:10:27;28.40;79.80
40696;DHT22;40425;51.102;17.208;2022-07-29T15:15:28;28.70;79.70
40696;DHT22;40425;51.102;17.208;2022-07-29T15:20:30;29.00;79.10
40696;DHT22;40425;51.102;17.208;2022-07-29T15:25:32;29.20;79.60
40696;DHT22;40425;51.102;17.208;2022-07-29T15:30:37;29.10;79.30
40696;DHT22;40425;51.102;17.208;2022-07-29T15:35:41;28.90;79.50
40696;DHT22;40425;51.102;17.208;2022-07-29T15:40:43;28.70;78.90
40696;DHT22;40425;51.102;17.208;2022-07-29T15:45:46;28.50;78.70
40696;DHT22;40425;51.102;17.208;2022-07-29T15:51:20;28.30;79.50
40696;DHT22;40425;51.102;17.208;2022-07-29T15:56:22;28.20;80.00
40696;DHT22;40425;51.102;17.208;2022-07-29T16:01:24;27.90;80.30
40696;DHT22;40425;51.102;17.208;2022-07-29T16:06:27;27.60;80.80
40696;DHT22;40425;51.102;17.208;2022-07-29T16:11:28;27.50;82.20
40696;DHT22;40425;51.102;17.208;2022-07-29T16:16:29;27.40;81.90
40696;DHT22;40425;51.102;17.208;2022-07-29T16:21:31;27.50;82.00
40696;DHT22;40425;51.102;17.208;2022-07-29T16:26:33;27.40;81.80
40696;DHT22;40425;51.102;17.208;2022-07-29T16:31:34;27.40;82.50
40696;DHT22;40425;51.102;17.208;2022-07-29T16:36:34;27.40;81.70
40696;DHT22;40425;51.102;17.208;2022-07-29T16:41:35;27.30;82.20
40696;DHT22;40425;51.102;17.208;2022-07-29T16:46:36;27.20;82.50
40696;DHT22;40425;51.102;17.208;2022-07-29T16:51:37;27.20;83.10
40696;DHT22;40425;51.102;17.208;2022-07-29T16:56:38;27.10;82.90
40696;DHT22;40425;51.102;17.208;2022-07-29T17:01:39;26.80;83.70
40696;DHT22;40425;51.102;17.208;2022-07-29T17:06:40;26.70;84.80
40696;DHT22;40425;51.102;17.208;2022-07-29T17:11:42;26.70;88.80
40696;DHT22;40425;51.102;17.208;2022-07-29T17:16:42;26.60;90.00
40696;DHT22;40425;51.102;17.208;2022-07-29T17:21:43;26.40;90.40
40696;DHT22;40425;51.102;17.208;2022-07-29T17:26:44;26.30;90.80
40696;DHT22;40425;51.102;17.208;2022-07-29T17:31:46;26.10;91.10
40696;DHT22;40425;51.102;17.208;2022-07-29T17:36:47;25.90;91.60
40696;DHT22;40425;51.102;17.208;2022-07-29T17:41:48;25.80;91.90
40696;DHT22;40425;51.102;17.208;2022-07-29T17:46:49;25.70;92.50
40696;DHT22;40425;51.102;17.208;2022-07-29T17:51:50;25.50;92.30
40696;DHT22;40425;51.102;17.208;2022-07-29T17:56:51;25.30;92.60
40696;DHT22;40425;51.102;17.208;2022-07-29T18:01:51;25.20;93.00
40696;DHT22;40425;51.102;17.208;2022-07-29T18:06:53;25.00;93.40
40696;DHT22;40425;51.102;17.208;2022-07-29T18:11:54;24.80;93.90
40696;DHT22;40425;51.102;17.208;2022-07-29T18:16:56;24.70;94.50
40696;DHT22;40425;51.102;17.208;2022-07-29T18:21:57;24.60;95.00
40696;DHT22;40425;51.102;17.208;2022-07-29T18:26:59;24.50;95.40
40696;DHT22;40425;51.102;17.208;2022-07-29T18:32:00;24.40;95.90
40696;DHT22;40425;51.102;17.208;2022-07-29T18:37:02;24.30;96.50
40696;DHT22;40425;51.102;17.208;2022-07-29T18:42:04;24.20;97.00
40696;DHT22;40425;51.102;17.208;2022-07-29T18:47:06;24.00;97.70
40696;DHT22;40425;51.102;17.208;2022-07-29T18:52:08;23.90;98.50
40696;DHT22;40425;51.102;17.208;2022-07-29T18:57:09;23.90;99.00
40696;DHT22;40425;51.102;17.208;2022-07-29T19:02:11;23.80;99.70
40696;DHT22;40425;51.102;17.208;2022-07-29T19:07:13;23.60;99.90
40696;DHT22;40425;51.102;17.208;2022-07-29T19:12:17;23.10;99.90
40696;DHT22;40425;51.102;17.208;2022-07-29T19:17:20;22.60;99.90
40696;DHT22;40425;51.102;17.208;2022-07-29T19:22:24;22.20;99.90
40696;DHT22;40425;51.102;17.208;2022-07-29T19:27:26;22.00;99.90
40696;DHT22;40425;51.102;17.208;2022-07-29T19:32:28;22.10;99.90
40696;DHT22;40425;51.102;17.208;2022-07-29T19:37:31;22.00;99.90
40696;DHT22;40425;51.102;17.208;2022-07-29T19:42:33;22.00;99.90
40696;DHT22;40425;51.102;17.208;2022-07-29T19:47:35;21.80;99.90
40696;DHT22;40425;51.102;17.208;2022-07-29T19:52:36;21.70;99.90
40696;DHT22;40425;51.102;17.208;2022-07-29T19:57:37;21.60;99.90
40696;DHT22;40425;51.102;17.208;2022-07-29T20:02:39;21.60;99.90
40696;DHT22;40425;51.102;17.208;2022-07-29T20:07:42;21.60;99.90
40696;DHT22;40425;51.102;17.208;2022-07-29T20:12:44;21.40;99.90
40696;DHT22;40425;51.102;17.208;2022-07-29T20:17:46;21.30;99.90
40696;DHT22;40425;51.102;17.208;2022-07-29T20:22:47;21.30;99.90
40696;DHT22;40425;51.102;17.208;2022-07-29T20:27:49;21.30;99.90
40696;DHT22;40425;51.102;17.208;2022-07-29T20:32:51;21.20;99.90
40696;DHT22;40425;51.102;17.208;2022-07-29T20:37:52;21.10;99.90
40696;DHT22;40425;51.102;17.208;2022-07-29T20:42:55;20.80;99.90
40696;DHT22;40425;51.102;17.208;2022-07-29T20:47:56;20.60;99.90
40696;DHT22;40425;51.102;17.208;2022-07-29T20:52:57;20.40;99.90
40696;DHT22;40425;51.102;17.208;2022-07-29T20:57:58;20.00;99.90
40696;DHT22;40425;51.102;17.208;2022-07-29T21:02:59;19.80;99.90
40696;DHT22;40425;51.102;17.208;2022-07-29T21:08:02;19.80;99.90
40696;DHT22;40425;51.102;17.208;2022-07-29T21:13:06;20.10;99.90
40696;DHT22;40425;51.102;17.208;2022-07-29T21:18:07;20.00;99.90
40696;DHT22;40425;51.102;17.208;2022-07-29T21:23:27;20.00;99.90
40696;DHT22;40425;51.102;17.208;2022-07-29T21:28:30;20.00;99.90
40696;DHT22;40425;51.102;17.208;2022-07-29T21:33:41;20.10;99.90
40696;DHT22;40425;51.102;17.208;2022-07-29T21:38:43;20.10;99.90
40696;DHT22;40425;51.102;17.208;2022-07-29T21:43:44;19.90;99.90
40696;DHT22;40425;51.102;17.208;2022-07-29T21:48:45;19.50;99.90
40696;DHT22;40425;51.102;17.208;2022-07-29T21:53:46;19.00;99.90
40696;DHT22;40425;51.102;17.208;2022-07-29T21:58:47;19.00;99.90
40696;DHT22;40425;51.102;17.208;2022-07-29T22:03:48;19.20;99.90
40696;DHT22;40425;51.102;17.208;2022-07-29T22:08:49;19.30;99.90
40696;DHT22;40425;51.102;17.208;2022-07-29T22:13:51;19.30;99.90
40696;DHT22;40425;51.102;17.208;2022-07-29T22:18:52;19.30;99.90
40696;DHT22;40425;51.102;17.208;2022-07-29T22:23:53;19.20;99.90
40696;DHT22;40425;51.102;17.208;2022-07-29T22:28:54;18.90;99.90
40696;DHT22;40425;51.102;17.208;2022-07-29T22:33:55;18.80;99.90
40696;DHT22;40425;51.102;17.208;2022-07-29T22:38:56;18.80;99.90
40696;DHT22;40425;51.102;17.208;2022-07-29T22:43:57;18.90;99.90
40696;DHT22;40425;51.102;17.208;2022-07-29T22:48:57;18.90;99.90
40696;DHT22;40425;51.102;17.208;2022-07-29T22:53:59;18.90;99.90
40696;DHT22;40425;51.102;17.208;2022-07-29T22:58:59;18.80;99.90
40696;DHT22;40425;51.102;17.208;2022-07-29T23:04:00;18.50;99.90
40696;DHT22;40425;51.102;17.208;2022-07-29T23:09:02;18.00;99.90
40696;DHT22;40425;51.102;17.208;2022-07-29T23:14:03;17.80;99.90
40696;DHT22;40425;51.102;17.208;2022-07-29T23:19:04;18.00;99.90
40696;DHT22;40425;51.102;17.208;2022-07-29T23:24:05;18.10;99.90
40696;DHT22;40425;51.102;17.208;2022-07-29T23:29:05;18.00;99.90
40696;DHT22;40425;51.102;17.208;2022-07-29T23:34:06;17.80;99.90
40696;DHT22;40425;51.102;17.208;2022-07-29T23:39:08;17.90;99.90
40696;DHT22;40425;51.102;17.208;2022-07-29T23:44:10;17.90;99.90
40696;DHT22;40425;51.102;17.208;2022-07-29T23:49:11;17.90;99.90
40696;DHT22;40425;51.102;17.208;2022-07-29T23:54:13;17.80;99.90
40696;DHT22;40425;51.102;17.208;2022-07-29T23:59:14;17.80;99.90
